Time;durP1;ratioP1;P1;durP2;ratioP2;P2;SDS_P1;SDS_P2;PMS_P1;PMS_P2;Temp;Humidity;BMP_temperature;BMP_pressure;BME280_temperature;BME280_humidity;BME280_pressure;Samples;Min_cycle;Max_cycle;Signal;HPM_P1;HPM_P2
2023/09/13 00:02:20;;;;;;;3.90;3.70;;;30.50;54.10;;;;;;5037524;28;20430;-75
2023/09/13 00:04:50;;;;;;;4.60;4.40;;;30.50;54.10;;;;;;5037635;28;20410;-76
2023/09/13 00:07:18;;;;;;;4.60;4.30;;;30.50;54.10;;;;;;5037786;28;20539;-77
2023/09/13 00:09:46;;;;;;;4.03;3.83;;;30.50;54.00;;;;;;5037393;28;20599;-76
2023/09/13 00:12:15;;;;;;;4.73;4.47;;;30.50;54.20;;;;;;5037417;28;20516;-76
2023/09/13 00:14:43;;;;;;;4.50;4.30;;;30.40;54.00;;;;;;5037131;28;20533;-76
2023/09/13 00:17:11;;;;;;;4.70;4.40;;;30.40;54.20;;;;;;5037510;28;20448;-75
2023/09/13 00:19:39;;;;;;;4.80;4.50;;;30.40;54.30;;;;;;5037690;28;20447;-75
2023/09/13 00:22:08;;;;;;;5.20;4.90;;;30.40;54.20;;;;;;5037024;28;20551;-75
2023/09/13 00:24:37;;;;;;;5.57;5.17;;;30.40;54.30;;;;;;5037181;28;20495;-75
2023/09/13 00:27:05;;;;;;;4.97;4.67;;;30.40;54.30;;;;;;5037777;28;20435;-75
2023/09/13 00:29:34;;;;;;;4.77;4.47;;;30.40;54.20;;;;;;5037272;28;20439;-75
2023/09/13 00:32:02;;;;;;;4.33;4.13;;;30.40;54.50;;;;;;5036795;28;20550;-75
2023/09/13 00:34:31;;;;;;;5.10;4.70;;;30.40;54.50;;;;;;5037040;28;20540;-75
2023/09/13 00:36:59;;;;;;;4.67;4.37;;;30.40;54.60;;;;;;5037364;28;20443;-76
2023/09/13 00:39:28;;;;;;;4.03;3.83;;;30.40;54.50;;;;;;5036000;28;20447;-76
2023/09/13 00:41:57;;;;;;;4.80;4.50;;;30.40;54.50;;;;;;5033528;28;20499;-74
2023/09/13 00:44:25;;;;;;;4.27;4.07;;;30.40;54.50;;;;;;5034094;28;20493;-76
2023/09/13 00:46:53;;;;;;;4.60;4.30;;;30.40;54.70;;;;;;5034009;28;20450;-76
2023/09/13 00:49:21;;;;;;;4.30;4.10;;;30.30;54.60;;;;;;5034127;28;20956;-76
2023/09/13 00:51:50;;;;;;;4.30;4.10;;;30.30;54.80;;;;;;5033737;28;20453;-76
2023/09/13 00:54:18;;;;;;;4.57;4.30;;;30.30;54.70;;;;;;5033965;28;20496;-75
2023/09/13 00:56:47;;;;;;;4.20;3.93;;;30.30;54.70;;;;;;5033633;28;20446;-76
2023/09/13 00:59:15;;;;;;;4.03;3.83;;;30.30;54.90;;;;;;5033687;28;20470;-75
2023/09/13 01:01:44;;;;;;;4.27;3.93;;;30.30;54.90;;;;;;5033865;28;20466;-76
2023/09/13 01:04:11;;;;;;;4.57;4.27;;;30.20;54.90;;;;;;5033510;28;20439;-74
2023/09/13 01:06:41;;;;;;;4.40;4.20;;;30.20;54.90;;;;;;5033233;28;20443;-76
2023/09/13 01:09:09;;;;;;;4.23;4.00;;;30.20;54.80;;;;;;5033640;28;20429;-76
2023/09/13 01:11:37;;;;;;;4.60;4.30;;;30.20;54.90;;;;;;5033423;28;20874;-75
2023/09/13 01:14:06;;;;;;;3.90;3.70;;;30.20;55.00;;;;;;5033280;28;20455;-76
2023/09/13 01:16:37;;;;;;;4.20;4.00;;;30.20;54.90;;;;;;5033762;28;20435;-77
2023/09/13 01:19:14;;;;;;;4.80;4.50;;;30.20;55.00;;;;;;5033297;28;20439;-76
2023/09/13 01:21:54;;;;;;;4.57;4.33;;;30.20;54.90;;;;;;5033226;28;20466;-77
2023/09/13 01:24:39;;;;;;;4.70;4.40;;;30.20;55.00;;;;;;5033321;28;20894;-76
2023/09/13 01:27:23;;;;;;;3.90;3.70;;;30.20;55.00;;;;;;5033367;28;20537;-76
2023/09/13 01:29:52;;;;;;;3.83;3.63;;;30.20;55.20;;;;;;5032859;28;20435;-77
2023/09/13 01:32:20;;;;;;;3.70;3.60;;;30.10;54.90;;;;;;5031933;28;20499;-76
2023/09/13 01:34:48;;;;;;;4.37;4.17;;;30.10;55.10;;;;;;5033080;28;20566;-76
2023/09/13 01:37:16;;;;;;;3.80;3.60;;;30.10;55.10;;;;;;5032843;28;21009;-76
2023/09/13 01:39:44;;;;;;;3.77;3.63;;;30.20;55.10;;;;;;5033263;28;20443;-77
2023/09/13 01:42:12;;;;;;;4.27;4.07;;;30.10;55.00;;;;;;5033226;28;20471;-77
2023/09/13 01:44:41;;;;;;;4.37;4.10;;;30.10;55.00;;;;;;5033366;28;20480;-77
2023/09/13 01:47:10;;;;;;;4.10;3.90;;;30.10;55.20;;;;;;5033533;28;20904;-77
2023/09/13 01:49:39;;;;;;;3.60;3.40;;;30.10;55.10;;;;;;5033076;28;20453;-77
2023/09/13 01:52:07;;;;;;;4.10;3.90;;;30.10;55.20;;;;;;5032793;28;20442;-77
2023/09/13 01:54:35;;;;;;;3.73;3.53;;;30.10;55.20;;;;;;5032777;28;20422;-77
2023/09/13 01:57:04;;;;;;;3.80;3.60;;;30.10;55.30;;;;;;5032858;28;20530;-77
2023/09/13 01:59:33;;;;;;;4.13;3.93;;;30.10;55.30;;;;;;5032933;28;20501;-76
2023/09/13 02:02:01;;;;;;;3.93;3.73;;;30.10;55.30;;;;;;5032601;28;20530;-77
2023/09/13 02:04:33;;;;;;;3.90;3.70;;;30.00;55.30;;;;;;5032692;28;20447;-77
2023/09/13 02:07:02;;;;;;;4.10;3.90;;;30.00;55.40;;;;;;5032891;28;20493;-77
2023/09/13 02:09:30;;;;;;;3.90;3.70;;;30.00;55.20;;;;;;5032737;28;20524;-77
2023/09/13 02:11:58;;;;;;;3.63;3.43;;;30.00;55.40;;;;;;5032128;28;20491;-77
2023/09/13 02:14:27;;;;;;;3.70;3.60;;;30.00;55.30;;;;;;5032392;28;20534;-77
2023/09/13 02:16:59;;;;;;;4.00;3.70;;;30.00;55.30;;;;;;5032172;28;20465;-77
2023/09/13 02:19:28;;;;;;;4.03;3.73;;;30.00;55.40;;;;;;5031936;28;20439;-77
2023/09/13 02:21:57;;;;;;;3.93;3.73;;;30.00;55.40;;;;;;5032619;28;20455;-77
2023/09/13 02:24:25;;;;;;;3.33;3.23;;;30.00;55.30;;;;;;5032090;28;20540;-77
2023/09/13 02:26:55;;;;;;;3.97;3.70;;;30.00;55.40;;;;;;5032196;28;20470;-77
2023/09/13 02:29:24;;;;;;;3.93;3.73;;;30.00;55.30;;;;;;5032271;28;20442;-77
2023/09/13 02:31:51;;;;;;;3.67;3.57;;;29.90;55.50;;;;;;5032098;28;20443;-77
2023/09/13 02:34:20;;;;;;;3.50;3.30;;;30.00;55.70;;;;;;5032397;28;20443;-75
2023/09/13 02:36:48;;;;;;;3.40;3.30;;;30.00;55.40;;;;;;5032086;28;20476;-77
2023/09/13 02:39:34;;;;;;;3.60;3.40;;;29.90;55.60;;;;;;5040178;28;20435;-77
2023/09/13 02:42:02;;;;;;;3.00;2.90;;;30.00;55.60;;;;;;5048617;28;20508;-77
2023/09/13 02:44:31;;;;;;;3.33;3.23;;;29.90;55.60;;;;;;5046697;28;20431;-77
2023/09/13 02:46:59;;;;;;;3.77;3.57;;;29.90;55.70;;;;;;5031499;28;20435;-76
2023/09/13 02:49:27;;;;;;;3.53;3.33;;;29.90;55.60;;;;;;5031987;28;20418;-76
2023/09/13 02:51:55;;;;;;;3.20;3.10;;;29.90;55.80;;;;;;5031838;28;20466;-76
2023/09/13 02:54:23;;;;;;;3.57;3.47;;;29.90;55.80;;;;;;5032035;28;20526;-77
2023/09/13 02:56:53;;;;;;;3.50;3.30;;;29.90;55.90;;;;;;5031504;28;20478;-76
2023/09/13 02:59:21;;;;;;;3.30;3.20;;;29.90;55.70;;;;;;5031154;28;20925;-76
2023/09/13 03:01:49;;;;;;;3.77;3.67;;;29.80;55.60;;;;;;5031548;28;20469;-76
2023/09/13 03:04:18;;;;;;;3.40;3.30;;;29.80;55.70;;;;;;5030854;28;20414;-76
2023/09/13 03:06:46;;;;;;;4.00;3.80;;;29.80;55.80;;;;;;5031329;28;20932;-76
2023/09/13 03:09:14;;;;;;;3.53;3.37;;;29.80;55.80;;;;;;5031927;28;20514;-76
2023/09/13 03:11:42;;;;;;;3.53;3.27;;;29.80;55.80;;;;;;5031476;28;20525;-76
2023/09/13 03:14:11;;;;;;;3.73;3.53;;;29.80;55.90;;;;;;5031558;28;20453;-76
2023/09/13 03:16:39;;;;;;;3.60;3.40;;;29.80;55.90;;;;;;5031506;28;20529;-76
2023/09/13 03:19:08;;;;;;;3.33;3.13;;;29.70;56.00;;;;;;5030774;28;20442;-77
2023/09/13 03:21:36;;;;;;;3.37;3.27;;;29.70;55.70;;;;;;5031738;28;20525;-77
2023/09/13 03:24:06;;;;;;;3.40;3.20;;;29.70;56.00;;;;;;5031233;28;20854;-77
2023/09/13 03:26:38;;;;;;;3.33;3.20;;;29.70;56.10;;;;;;5031573;28;20494;-77
2023/09/13 03:29:06;;;;;;;2.90;2.80;;;29.70;55.80;;;;;;5031400;28;20449;-77
2023/09/13 03:31:38;;;;;;;3.37;3.27;;;29.70;55.90;;;;;;5031058;28;20521;-76
2023/09/13 03:34:06;;;;;;;3.20;3.00;;;29.70;56.00;;;;;;5030817;28;20500;-76
2023/09/13 03:36:34;;;;;;;3.20;3.10;;;29.70;56.20;;;;;;5030778;28;20472;-76
2023/09/13 03:39:03;;;;;;;3.70;3.50;;;29.70;56.20;;;;;;5030943;28;20469;-76
2023/09/13 03:41:32;;;;;;;3.50;3.30;;;29.70;56.20;;;;;;5054403;22;20449;31
2023/09/13 03:43:59;;;;;;;3.57;3.37;;;29.60;55.90;;;;;;5009579;28;20452;-79
2023/09/13 03:46:28;;;;;;;3.17;3.07;;;29.60;56.40;;;;;;5011400;28;20500;-78
2023/09/13 03:48:57;;;;;;;3.10;3.00;;;29.60;56.30;;;;;;5011606;28;20444;-79
2023/09/13 03:51:25;;;;;;;3.30;3.20;;;29.60;56.30;;;;;;5011473;28;20426;-79
2023/09/13 03:53:53;;;;;;;3.13;3.03;;;29.60;56.40;;;;;;5011383;28;20526;-79
2023/09/13 03:56:21;;;;;;;3.53;3.30;;;29.60;56.50;;;;;;5011578;28;20475;-79
2023/09/13 03:58:49;;;;;;;3.13;2.93;;;29.60;56.30;;;;;;5011897;28;20495;-78
2023/09/13 04:01:17;;;;;;;3.07;2.97;;;29.50;56.30;;;;;;5013822;28;20471;-77
2023/09/13 04:03:45;;;;;;;3.53;3.33;;;29.50;56.20;;;;;;5013310;28;20439;-78
2023/09/13 04:06:16;;;;;;;2.93;2.83;;;29.50;56.50;;;;;;5015020;28;20454;-80
2023/09/13 04:08:44;;;;;;;2.80;2.70;;;29.60;56.60;;;;;;5016273;28;20455;-79
2023/09/13 04:11:12;;;;;;;3.20;3.07;;;29.50;56.50;;;;;;5015516;28;20440;-79
2023/09/13 04:13:40;;;;;;;3.50;3.23;;;29.50;56.40;;;;;;5015843;28;20487;-79
2023/09/13 04:16:09;;;;;;;3.00;2.80;;;29.50;56.60;;;;;;5017952;28;20472;-78
2023/09/13 04:18:37;;;;;;;3.90;3.60;;;29.50;56.80;;;;;;5016832;28;20506;-78
2023/09/13 04:21:05;;;;;;;3.13;3.00;;;29.50;56.50;;;;;;5016715;28;20494;-78
2023/09/13 04:23:34;;;;;;;2.87;2.77;;;29.40;56.60;;;;;;5014917;28;20464;-78
2023/09/13 04:26:03;;;;;;;3.13;2.93;;;29.40;56.80;;;;;;5015236;28;20437;-79
2023/09/13 04:28:33;;;;;;;2.90;2.80;;;29.40;56.70;;;;;;5015225;28;20415;-79
2023/09/13 04:31:01;;;;;;;3.37;3.17;;;29.40;56.70;;;;;;5015452;28;20410;-78
2023/09/13 04:33:52;;;;;;;3.27;3.07;;;29.40;56.80;;;;;;5016211;28;20431;-79
2023/09/13 04:36:20;;;;;;;3.17;3.00;;;29.40;56.70;;;;;;5014750;28;20442;-78
2023/09/13 04:38:49;;;;;;;3.40;3.20;;;29.40;56.90;;;;;;5015401;28;20450;-78
2023/09/13 04:41:17;;;;;;;3.07;2.97;;;29.30;56.80;;;;;;5015071;28;20893;-78
2023/09/13 04:43:45;;;;;;;3.00;2.90;;;29.30;56.90;;;;;;5015171;28;20503;-78
2023/09/13 04:46:14;;;;;;;3.13;2.93;;;29.30;56.80;;;;;;5014644;28;20946;-78
2023/09/13 04:48:42;;;;;;;3.30;3.10;;;29.30;56.90;;;;;;5015338;28;20448;-79
2023/09/13 04:51:11;;;;;;;2.90;2.80;;;29.30;57.60;;;;;;5015407;28;20478;-79
2023/09/13 04:53:39;;;;;;;3.13;2.93;;;29.30;56.80;;;;;;5016269;28;20475;-79
2023/09/13 04:56:09;;;;;;;2.83;2.63;;;29.30;57.00;;;;;;5015815;28;20497;-78
2023/09/13 04:58:37;;;;;;;3.27;3.10;;;29.20;57.00;;;;;;5014804;28;20498;-77
2023/09/13 05:01:06;;;;;;;3.73;3.47;;;29.30;57.00;;;;;;5014108;28;20442;-77
2023/09/13 05:03:34;;;;;;;3.00;2.90;;;29.20;57.00;;;;;;5013978;28;20474;-77
2023/09/13 05:06:02;;;;;;;3.23;3.00;;;29.20;57.10;;;;;;5013066;28;20447;-77
2023/09/13 05:08:35;;;;;;;3.27;3.10;;;29.10;57.10;;;;;;5013799;28;20920;-77
2023/09/13 05:11:03;;;;;;;2.83;2.73;;;29.10;57.10;;;;;;5014513;28;20497;-77
2023/09/13 05:13:33;;;;;;;2.60;2.50;;;29.10;57.20;;;;;;5013974;28;20564;-78
2023/09/13 05:16:01;;;;;;;3.20;3.10;;;29.10;57.10;;;;;;5012764;28;20436;-77
2023/09/13 05:18:29;;;;;;;3.50;3.30;;;29.10;57.60;;;;;;5016291;28;20476;-78
2023/09/13 05:20:57;;;;;;;3.23;3.03;;;29.10;57.30;;;;;;5016830;28;20489;-78
2023/09/13 05:23:25;;;;;;;2.57;2.47;;;29.10;57.20;;;;;;5017131;28;20467;-77
2023/09/13 05:25:55;;;;;;;3.50;3.30;;;29.10;57.40;;;;;;5012946;28;20527;-78
2023/09/13 05:28:24;;;;;;;3.40;3.20;;;29.10;57.40;;;;;;5013398;28;20444;-77
2023/09/13 05:30:54;;;;;;;3.33;3.17;;;29.10;57.20;;;;;;5015302;28;20418;-79
2023/09/13 05:33:23;;;;;;;2.90;2.80;;;29.10;57.40;;;;;;5013754;28;20523;-78
2023/09/13 05:35:51;;;;;;;2.60;2.40;;;29.10;57.50;;;;;;5013233;28;20444;-78
2023/09/13 05:38:19;;;;;;;2.93;2.83;;;29.00;57.30;;;;;;5013415;28;20484;-78
2023/09/13 05:40:47;;;;;;;2.97;2.87;;;29.00;57.40;;;;;;5012960;28;20512;-78
2023/09/13 05:43:15;;;;;;;3.33;3.13;;;29.00;57.20;;;;;;5012985;28;20500;-79
2023/09/13 05:45:44;;;;;;;2.67;2.57;;;28.90;57.30;;;;;;5013786;28;20437;-79
2023/09/13 05:48:13;;;;;;;2.50;2.40;;;28.90;57.50;;;;;;5013579;28;20415;-79
2023/09/13 05:50:41;;;;;;;2.80;2.70;;;28.90;57.40;;;;;;5013188;28;20440;-78
2023/09/13 05:53:09;;;;;;;2.50;2.40;;;28.90;57.60;;;;;;5013295;28;20557;-78
2023/09/13 05:55:37;;;;;;;2.90;2.70;;;28.90;57.50;;;;;;5014172;28;20448;-79
2023/09/13 05:58:05;;;;;;;2.90;2.80;;;28.90;57.60;;;;;;5013376;28;20498;-78
2023/09/13 06:00:33;;;;;;;2.70;2.60;;;28.90;57.40;;;;;;5012727;28;20422;-79
2023/09/13 06:03:01;;;;;;;2.87;2.77;;;28.90;57.40;;;;;;5012521;28;20543;-78
2023/09/13 06:05:31;;;;;;;4.03;3.00;;;28.90;57.70;;;;;;5013504;28;21038;-78
2023/09/13 06:07:58;;;;;;;2.87;2.70;;;28.90;57.70;;;;;;5013561;28;20588;-80
2023/09/13 06:10:27;;;;;;;3.57;3.37;;;28.90;57.50;;;;;;5013243;28;20473;-79
2023/09/13 06:12:55;;;;;;;2.87;2.67;;;28.80;57.40;;;;;;5012700;28;20488;-78
2023/09/13 06:15:23;;;;;;;3.20;3.03;;;28.80;57.70;;;;;;5012095;28;20429;-78
2023/09/13 06:17:51;;;;;;;2.60;2.40;;;28.80;57.60;;;;;;5012495;28;20494;-79
2023/09/13 06:20:20;;;;;;;3.00;2.80;;;28.80;57.80;;;;;;5012715;28;20841;-79
2023/09/13 06:22:49;;;;;;;2.60;2.50;;;28.80;57.70;;;;;;5013598;28;20483;-78
2023/09/13 06:25:19;;;;;;;4.23;2.60;;;28.80;57.40;;;;;;5012319;28;20452;-79
2023/09/13 06:27:47;;;;;;;2.60;2.50;;;28.70;57.50;;;;;;5012926;28;20423;-78
2023/09/13 06:30:15;;;;;;;2.73;2.63;;;28.70;57.80;;;;;;5012439;28;20448;-79
2023/09/13 06:32:43;;;;;;;2.60;2.50;;;28.70;57.70;;;;;;5012347;28;20530;-76
2023/09/13 06:35:13;;;;;;;2.90;2.70;;;28.70;57.30;;;;;;5012741;28;20499;-78
2023/09/13 06:37:43;;;;;;;3.20;2.90;;;28.70;57.50;;;;;;5012389;28;20451;-79
2023/09/13 06:40:15;;;;;;;3.23;2.90;;;28.70;57.60;;;;;;5013693;28;20426;-79
2023/09/13 06:42:44;;;;;;;2.20;2.10;;;28.70;57.70;;;;;;5013265;28;20443;-79
2023/09/13 06:45:15;;;;;;;3.10;2.90;;;28.70;57.70;;;;;;5013212;28;20518;-77
2023/09/13 06:47:53;;;;;;;2.43;2.30;;;28.60;57.70;;;;;;5013668;28;20449;-80
2023/09/13 06:50:22;;;;;;;2.73;2.53;;;28.60;57.50;;;;;;5012833;28;20423;-79
2023/09/13 06:52:53;;;;;;;2.43;2.23;;;28.60;57.70;;;;;;5014718;28;20477;-78
2023/09/13 06:55:43;;;;;;;2.70;2.50;;;28.60;57.50;;;;;;5012632;28;20432;-78
2023/09/13 06:58:14;;;;;;;2.93;2.73;;;28.60;57.80;;;;;;5011872;28;20479;-79
2023/09/13 07:00:46;;;;;;;2.60;2.40;;;28.60;57.70;;;;;;5013467;28;20446;-80
2023/09/13 07:03:33;;;;;;;2.57;2.37;;;28.60;57.60;;;;;;5013540;28;20434;-80
2023/09/13 07:06:12;;;;;;;2.13;2.03;;;28.60;57.60;;;;;;5013207;28;20476;-78
2023/09/13 07:08:40;;;;;;;2.80;2.60;;;28.50;57.80;;;;;;5013546;28;20437;-79
2023/09/13 07:11:10;;;;;;;2.30;2.20;;;28.50;57.60;;;;;;5014167;28;20489;-78
2023/09/13 07:13:38;;;;;;;2.40;2.30;;;28.50;57.50;;;;;;5013362;28;20431;-80
2023/09/13 07:16:06;;;;;;;2.60;2.40;;;28.50;57.60;;;;;;5012360;28;20430;-79
2023/09/13 07:18:34;;;;;;;3.57;2.90;;;28.50;57.60;;;;;;5012570;28;20534;-80
2023/09/13 07:21:03;;;;;;;2.97;2.47;;;28.50;57.70;;;;;;5012187;28;20527;-79
2023/09/13 07:23:31;;;;;;;2.50;2.30;;;28.50;57.80;;;;;;5012062;28;20497;-79
2023/09/13 07:25:59;;;;;;;3.63;2.70;;;28.50;57.80;;;;;;5012658;28;20452;-78
2023/09/13 07:28:29;;;;;;;2.83;2.63;;;28.40;57.60;;;;;;5012511;28;20430;-78
2023/09/13 07:30:57;;;;;;;2.43;2.33;;;28.40;57.60;;;;;;5012618;28;20487;-80
2023/09/13 07:33:26;;;;;;;2.60;2.40;;;28.40;57.50;;;;;;5012481;28;20505;-78
2023/09/13 07:35:54;;;;;;;3.00;2.70;;;28.40;57.60;;;;;;5011648;28;20470;-79
2023/09/13 07:38:22;;;;;;;2.50;2.30;;;28.40;57.60;;;;;;5012834;28;20563;-80
2023/09/13 07:40:50;;;;;;;2.70;2.50;;;28.40;57.70;;;;;;5013528;28;20411;-78
2023/09/13 07:43:18;;;;;;;2.40;2.20;;;28.40;57.50;;;;;;5011569;28;20468;-79
2023/09/13 07:45:47;;;;;;;2.70;2.50;;;28.40;57.70;;;;;;5012784;28;20502;-79
2023/09/13 07:48:15;;;;;;;2.50;2.30;;;28.40;57.70;;;;;;5011947;28;20470;-79
2023/09/13 07:50:44;;;;;;;2.73;2.53;;;28.40;57.50;;;;;;5015712;28;20419;-80
2023/09/13 07:53:12;;;;;;;2.63;2.50;;;28.40;57.60;;;;;;5016707;28;20502;-79
2023/09/13 07:55:40;;;;;;;2.47;2.37;;;28.40;57.60;;;;;;5016816;28;20419;-80
2023/09/13 07:58:09;;;;;;;2.53;2.37;;;28.40;57.60;;;;;;5015591;28;20533;-78
2023/09/13 08:00:37;;;;;;;2.33;2.20;;;28.40;57.60;;;;;;5016101;28;20929;-78
2023/09/13 08:03:07;;;;;;;2.53;2.33;;;28.50;57.50;;;;;;5015776;28;20485;-79
2023/09/13 08:05:35;;;;;;;2.90;2.13;;;28.50;57.40;;;;;;5017301;28;20451;-79
2023/09/13 08:08:04;;;;;;;2.20;2.10;;;28.50;57.40;;;;;;5020699;28;20454;-79
2023/09/13 08:10:32;;;;;;;2.10;2.00;;;28.40;57.60;;;;;;5017367;28;20441;-79
2023/09/13 08:13:00;;;;;;;2.23;2.03;;;28.40;57.50;;;;;;5016490;28;20431;-79
2023/09/13 08:15:27;;;;;;;2.63;2.50;;;28.40;57.50;;;;;;5016291;28;20451;-79
2023/09/13 08:18:15;;;;;;;2.70;2.50;;;28.30;57.50;;;;;;5016611;28;20534;-77
2023/09/13 08:20:43;;;;;;;3.17;2.10;;;28.30;57.30;;;;;;5016071;28;20490;-80
2023/09/13 08:23:11;;;;;;;2.77;2.50;;;28.30;57.40;;;;;;5018177;28;20534;-78
2023/09/13 08:25:39;;;;;;;2.40;2.20;;;28.30;57.50;;;;;;5020177;28;20415;-80
2023/09/13 08:28:07;;;;;;;1.93;1.83;;;28.30;57.50;;;;;;5019801;28;20447;-77
2023/09/13 08:30:35;;;;;;;2.40;2.30;;;28.30;57.50;;;;;;5017307;28;20471;-78
2023/09/13 08:33:04;;;;;;;2.37;2.23;;;28.30;57.80;;;;;;5018631;28;20477;-79
2023/09/13 08:35:34;;;;;;;2.80;2.33;;;28.30;57.60;;;;;;5018227;28;20440;-78
2023/09/13 08:38:02;;;;;;;2.27;2.10;;;28.30;57.60;;;;;;5016797;28;20504;-79
2023/09/13 08:40:30;;;;;;;2.60;2.40;;;28.20;57.50;;;;;;5019278;28;20410;-79
2023/09/13 08:42:58;;;;;;;2.80;2.60;;;28.20;57.80;;;;;;5018710;28;20488;-80
2023/09/13 08:45:26;;;;;;;2.33;2.23;;;28.20;57.70;;;;;;5020104;28;20538;-78
2023/09/13 08:48:01;;;;;;;2.57;2.37;;;28.20;57.70;;;;;;5018127;28;20527;-78
2023/09/13 08:50:30;;;;;;;2.17;2.07;;;28.20;57.60;;;;;;5018977;28;20463;-80
2023/09/13 08:53:00;;;;;;;2.67;2.50;;;28.20;57.60;;;;;;5018572;28;20551;-80
2023/09/13 08:55:29;;;;;;;2.30;2.20;;;28.20;57.90;;;;;;5018421;28;20564;-80
2023/09/13 08:57:57;;;;;;;2.50;2.30;;;28.20;57.80;;;;;;5018012;28;20425;-80
2023/09/13 09:00:27;;;;;;;2.20;2.00;;;28.20;57.50;;;;;;5018257;28;20537;-80
2023/09/13 09:02:56;;;;;;;2.03;1.90;;;28.20;57.80;;;;;;5018092;28;20460;-80
2023/09/13 09:05:25;;;;;;;2.80;2.60;;;28.30;57.70;;;;;;5018253;28;20455;-80
2023/09/13 09:07:53;;;;;;;2.63;2.43;;;28.30;57.60;;;;;;5018297;28;20431;-80
2023/09/13 09:10:22;;;;;;;2.67;2.43;;;28.30;57.80;;;;;;5018052;28;20474;-80
2023/09/13 09:12:51;;;;;;;2.30;2.03;;;28.30;57.60;;;;;;5017446;28;20522;-80
2023/09/13 09:15:20;;;;;;;2.00;1.90;;;28.30;57.70;;;;;;5016743;28;20411;-77
2023/09/13 09:17:48;;;;;;;2.27;2.17;;;28.30;57.90;;;;;;5013670;28;20468;-77
2023/09/13 09:20:16;;;;;;;2.20;2.10;;;28.30;57.60;;;;;;5013140;28;20455;-77
2023/09/13 09:22:44;;;;;;;3.40;2.23;;;28.30;57.60;;;;;;5013489;28;20449;-80
2023/09/13 09:25:13;;;;;;;2.03;1.93;;;28.30;57.70;;;;;;5013821;28;20444;-77
2023/09/13 09:27:43;;;;;;;2.40;2.20;;;28.30;57.80;;;;;;5013856;28;20933;-79
2023/09/13 09:30:15;;;;;;;2.47;2.37;;;28.40;57.70;;;;;;5014044;28;20425;-78
2023/09/13 09:32:44;;;;;;;2.10;2.00;;;28.40;57.50;;;;;;5014288;28;20531;-78
2023/09/13 09:35:14;;;;;;;2.37;2.23;;;28.40;57.40;;;;;;5014650;28;20418;-78
2023/09/13 09:37:44;;;;;;;2.90;2.17;;;28.40;57.40;;;;;;5014451;28;20491;-78
2023/09/13 09:40:14;;;;;;;2.33;1.90;;;28.50;57.30;;;;;;5013291;28;20451;-79
2023/09/13 09:42:44;;;;;;;1.80;1.70;;;28.50;57.40;;;;;;5046494;22;20494;-77
2023/09/13 09:45:11;;;;;;;2.50;2.33;;;28.60;57.30;;;;;;5052687;28;20413;-78
2023/09/13 09:47:41;;;;;;;2.00;1.90;;;28.60;57.10;;;;;;5052936;28;20438;-77
2023/09/13 09:50:13;;;;;;;1.90;1.80;;;28.60;57.20;;;;;;5053029;28;20814;-78
2023/09/13 09:52:41;;;;;;;1.93;1.83;;;28.70;57.10;;;;;;5051436;28;20484;-78
2023/09/13 09:55:13;;;;;;;1.73;1.63;;;28.70;57.10;;;;;;5052798;28;20524;-78
2023/09/13 09:57:46;;;;;;;2.20;2.03;;;28.80;56.80;;;;;;5052634;28;20979;-78
2023/09/13 10:00:15;;;;;;;2.07;1.63;;;28.80;56.90;;;;;;5052509;28;21000;-77
2023/09/13 10:02:44;;;;;;;3.27;1.90;;;28.80;56.80;;;;;;5052419;28;20474;-79
2023/09/13 10:05:16;;;;;;;2.60;2.17;;;28.80;56.80;;;;;;5052278;28;20431;-79
2023/09/13 10:07:50;;;;;;;1.93;1.83;;;28.80;56.70;;;;;;5052377;28;20457;-78
2023/09/13 10:10:34;;;;;;;1.50;1.40;;;28.80;56.80;;;;;;5052571;28;20455;-78
2023/09/13 10:13:04;;;;;;;2.40;2.20;;;28.80;56.90;;;;;;5050168;28;20782;-77
2023/09/13 10:15:32;;;;;;;2.00;1.80;;;28.80;56.80;;;;;;5052818;28;20427;-77
2023/09/13 10:18:01;;;;;;;2.03;1.80;;;28.80;56.60;;;;;;5052439;28;20438;-77
2023/09/13 10:20:30;;;;;;;2.50;1.77;;;28.80;56.50;;;;;;5052471;28;20518;-77
2023/09/13 10:22:58;;;;;;;1.80;1.70;;;28.80;56.80;;;;;;5052604;28;20490;-77
2023/09/13 10:25:26;;;;;;;1.77;1.67;;;28.80;56.70;;;;;;5052080;28;20433;-78
2023/09/13 10:27:54;;;;;;;1.90;1.80;;;28.80;57.10;;;;;;5052105;28;20415;-77
2023/09/13 10:30:27;;;;;;;1.50;1.40;;;28.80;57.00;;;;;;5051956;28;20439;-78
2023/09/13 10:32:57;;;;;;;2.53;1.70;;;28.90;56.80;;;;;;5051894;28;20421;-77
2023/09/13 10:35:26;;;;;;;2.37;2.10;;;28.80;56.60;;;;;;5052183;28;20469;-78
2023/09/13 10:37:58;;;;;;;1.70;1.60;;;28.80;57.10;;;;;;5052059;28;20525;-77
2023/09/13 10:40:29;;;;;;;2.30;2.20;;;28.90;56.70;;;;;;5051947;28;20470;-77
2023/09/13 10:42:57;;;;;;;1.80;1.70;;;28.90;57.00;;;;;;5051656;28;20511;-76
2023/09/13 10:45:27;;;;;;;1.87;1.77;;;29.00;56.40;;;;;;5056471;28;20441;-77
2023/09/13 10:47:55;;;;;;;1.90;1.60;;;29.00;56.70;;;;;;5056661;28;20525;-78
2023/09/13 10:50:25;;;;;;;1.90;1.80;;;29.10;56.60;;;;;;5055237;28;20453;-79
2023/09/13 10:52:54;;;;;;;1.40;1.30;;;29.20;56.30;;;;;;5053317;28;20497;-79
2023/09/13 10:55:22;;;;;;;1.57;1.47;;;29.30;56.50;;;;;;5055153;28;20450;-79
2023/09/13 10:57:50;;;;;;;1.70;1.60;;;29.50;56.40;;;;;;5052074;28;20520;-79
2023/09/13 11:00:18;;;;;;;1.83;1.73;;;29.60;56.00;;;;;;5052021;28;20510;-78
2023/09/13 11:02:48;;;;;;;1.40;1.40;;;29.80;55.80;;;;;;5050878;28;20459;-76
2023/09/13 11:05:19;;;;;;;1.50;1.50;;;29.90;55.90;;;;;;5051764;28;20442;-74
2023/09/13 11:07:48;;;;;;;2.03;1.60;;;30.10;55.60;;;;;;5051315;28;20910;-78
2023/09/13 11:10:16;;;;;;;3.53;2.07;;;30.20;55.40;;;;;;5052677;28;20439;-77
2023/09/13 11:12:48;;;;;;;1.40;1.40;;;30.30;55.40;;;;;;5053002;28;20463;-77
2023/09/13 11:15:20;;;;;;;1.70;1.60;;;30.50;55.00;;;;;;5053195;28;20482;-80
2023/09/13 11:17:51;;;;;;;1.60;1.50;;;30.70;54.90;;;;;;5052387;28;20450;-78
2023/09/13 11:20:27;;;;;;;1.63;1.53;;;30.90;55.00;;;;;;5051950;28;20458;-76
2023/09/13 11:23:09;;;;;;;1.83;1.70;;;31.00;54.40;;;;;;5051530;28;20547;-79
2023/09/13 11:26:02;;;;;;;1.50;1.40;;;31.10;54.10;;;;;;5051182;28;20438;-76
2023/09/13 11:28:44;;;;;;;1.57;1.47;;;31.20;54.00;;;;;;5051162;28;20521;-77
2023/09/13 11:31:17;;;;;;;2.73;2.03;;;31.30;53.90;;;;;;5052193;28;20446;-77
2023/09/13 11:33:58;;;;;;;1.53;1.43;;;31.30;53.50;;;;;;5051297;28;20521;-78
2023/09/13 11:36:27;;;;;;;1.70;1.60;;;31.20;53.60;;;;;;5051211;28;20447;-78
2023/09/13 11:38:56;;;;;;;1.70;1.60;;;31.20;53.80;;;;;;5051279;28;20431;-77
2023/09/13 11:41:24;;;;;;;3.57;1.70;;;31.30;53.70;;;;;;5050726;28;20513;-76
2023/09/13 11:43:53;;;;;;;2.07;1.97;;;31.30;53.60;;;;;;5050469;28;20474;-77
2023/09/13 11:46:31;;;;;;;1.90;1.80;;;31.40;53.70;;;;;;5050815;28;20434;-78
2023/09/13 11:49:01;;;;;;;1.70;1.60;;;31.40;53.70;;;;;;5051019;28;20493;-79
2023/09/13 11:51:32;;;;;;;1.50;1.40;;;31.30;53.60;;;;;;5050831;28;20427;-77
2023/09/13 11:54:13;;;;;;;1.50;1.40;;;31.30;53.60;;;;;;5050717;28;20545;-79
2023/09/13 11:56:43;;;;;;;1.70;1.60;;;31.40;53.70;;;;;;5031121;28;20439;-77
2023/09/13 11:59:15;;;;;;;1.50;1.40;;;31.40;53.50;;;;;;5030936;28;20444;-76
2023/09/13 12:01:46;;;;;;;1.70;1.60;;;31.40;53.60;;;;;;5030991;28;20511;-79
2023/09/13 12:04:22;;;;;;;1.83;1.63;;;31.40;53.50;;;;;;5031182;28;20455;-77
2023/09/13 12:07:10;;;;;;;1.70;1.60;;;31.40;53.40;;;;;;5031171;28;20435;-77
2023/09/13 12:09:40;;;;;;;1.37;1.37;;;31.40;53.40;;;;;;5044695;28;20411;-79
2023/09/13 12:12:11;;;;;;;1.60;1.50;;;31.40;53.50;;;;;;5055001;28;20514;-79
2023/09/13 12:14:43;;;;;;;1.87;1.70;;;31.40;53.40;;;;;;5054242;28;20435;-83
2023/09/13 12:17:13;;;;;;;1.80;1.70;;;31.40;53.30;;;;;;5034264;28;20436;-76
2023/09/13 12:19:45;;;;;;;1.70;1.60;;;31.30;53.30;;;;;;5030610;28;20432;-77
2023/09/13 12:22:16;;;;;;;1.40;1.30;;;31.30;53.40;;;;;;5031289;28;20503;-80
2023/09/13 12:24:51;;;;;;;1.90;1.77;;;31.20;53.50;;;;;;5031048;28;20455;-75
2023/09/13 12:27:19;;;;;;;1.70;1.60;;;31.20;53.50;;;;;;5031322;28;20439;-76
2023/09/13 12:29:48;;;;;;;1.67;1.57;;;31.10;53.60;;;;;;5031265;28;20494;-76
2023/09/13 12:32:16;;;;;;;1.80;1.70;;;31.10;53.70;;;;;;5030934;28;20435;-77
2023/09/13 12:34:45;;;;;;;1.70;1.60;;;31.10;53.70;;;;;;5030608;28;20821;-78
2023/09/13 12:37:15;;;;;;;1.90;1.80;;;31.10;53.50;;;;;;5033137;28;20818;-80
2023/09/13 12:39:43;;;;;;;1.53;1.47;;;31.10;53.60;;;;;;5034591;28;20523;-77
2023/09/13 12:42:12;;;;;;;1.83;1.73;;;31.10;53.70;;;;;;5034257;28;20474;-78
2023/09/13 12:44:40;;;;;;;1.40;1.30;;;31.10;53.60;;;;;;5034630;28;20533;-78
2023/09/13 12:47:08;;;;;;;1.70;1.60;;;31.10;53.50;;;;;;5034251;28;20446;-80
2023/09/13 12:49:38;;;;;;;1.90;1.80;;;31.10;53.60;;;;;;5034403;28;20530;-78
2023/09/13 12:52:07;;;;;;;1.70;1.60;;;31.10;53.60;;;;;;5033933;28;20486;-79
2023/09/13 12:54:35;;;;;;;1.67;1.67;;;31.10;53.60;;;;;;5034107;28;20463;-79
2023/09/13 12:57:04;;;;;;;1.67;1.60;;;31.20;53.50;;;;;;5034088;28;20443;-77
2023/09/13 12:59:43;;;;;;;1.63;1.53;;;31.20;53.20;;;;;;5034008;28;20443;-77
2023/09/13 13:02:15;;;;;;;1.90;1.80;;;31.40;53.50;;;;;;5033855;28;20475;-78